sensor_id;sensor_type;location;lat;lon;timestamp;temperature;humidity
26049;DHT22;13822;51.568;5.086;2023-06-22T02:10:31;19.50;99.90
26049;DHT22;13822;51.568;5.086;2023-06-22T02:30:03;19.20;99.90
26049;DHT22;13822;51.568;5.086;2023-06-22T02:35:42;19.20;99.90
26049;DHT22;13822;51.568;5.086;2023-06-22T02:41:06;19.10;99.90
26049;DHT22;13822;51.568;5.086;2023-06-22T02:46:48;19.10;99.90
26049;DHT22;13822;51.568;5.086;2023-06-22T03:12:10;18.90;99.90
26049;DHT22;13822;51.568;5.086;2023-06-22T03:17:59;18.70;99.90
26049;DHT22;13822;51.568;5.086;2023-06-22T03:43:01;18.50;99.90
26049;DHT22;13822;51.568;5.086;2023-06-22T03:48:38;18.50;99.90
26049;DHT22;13822;51.568;5.086;2023-06-22T03:54:39;18.50;99.90
26049;DHT22;13822;51.568;5.086;2023-06-22T04:12:59;18.40;99.90
26049;DHT22;13822;51.568;5.086;2023-06-22T04:25:06;18.40;99.90
26049;DHT22;13822;51.568;5.086;2023-06-22T04:43:07;18.50;99.90
26049;DHT22;13822;51.568;5.086;2023-06-22T04:48:11;18.60;99.90
26049;DHT22;13822;51.568;5.086;2023-06-22T04:53:18;18.60;99.90
26049;DHT22;13822;51.568;5.086;2023-06-22T04:58:19;18.70;99.90
26049;DHT22;13822;51.568;5.086;2023-06-22T05:03:24;18.70;99.90
26049;DHT22;13822;51.568;5.086;2023-06-22T05:08:28;18.80;99.90
26049;DHT22;13822;51.568;5.086;2023-06-22T05:13:30;18.90;99.90
26049;DHT22;13822;51.568;5.086;2023-06-22T05:18:32;19.00;99.90
26049;DHT22;13822;51.568;5.086;2023-06-22T05:23:35;19.00;99.90
26049;DHT22;13822;51.568;5.086;2023-06-22T05:28:36;19.00;99.90
26049;DHT22;13822;51.568;5.086;2023-06-22T05:33:38;19.10;99.90
26049;DHT22;13822;51.568;5.086;2023-06-22T05:38:41;19.20;99.90
26049;DHT22;13822;51.568;5.086;2023-06-22T05:43:43;19.30;99.90
26049;DHT22;13822;51.568;5.086;2023-06-22T05:48:45;19.50;99.90
26049;DHT22;13822;51.568;5.086;2023-06-22T05:53:46;19.60;99.90
26049;DHT22;13822;51.568;5.086;2023-06-22T05:58:51;19.80;99.90
26049;DHT22;13822;51.568;5.086;2023-06-22T06:03:53;20.00;99.90
26049;DHT22;13822;51.568;5.086;2023-06-22T06:08:55;20.30;99.90
26049;DHT22;13822;51.568;5.086;2023-06-22T06:13:57;20.50;99.90
26049;DHT22;13822;51.568;5.086;2023-06-22T06:18:59;20.60;99.90
26049;DHT22;13822;51.568;5.086;2023-06-22T06:24:01;20.80;99.90
26049;DHT22;13822;51.568;5.086;2023-06-22T06:29:03;20.90;99.90
26049;DHT22;13822;51.568;5.086;2023-06-22T06:34:05;21.00;99.90
26049;DHT22;13822;51.568;5.086;2023-06-22T06:39:06;21.10;99.90
26049;DHT22;13822;51.568;5.086;2023-06-22T06:44:08;21.20;99.90
26049;DHT22;13822;51.568;5.086;2023-06-22T06:49:10;21.30;99.90
26049;DHT22;13822;51.568;5.086;2023-06-22T06:54:12;21.40;99.90
26049;DHT22;13822;51.568;5.086;2023-06-22T06:59:14;21.50;99.90
26049;DHT22;13822;51.568;5.086;2023-06-22T07:04:17;21.60;99.90
26049;DHT22;13822;51.568;5.086;2023-06-22T07:09:19;21.70;99.90
26049;DHT22;13822;51.568;5.086;2023-06-22T07:14:21;21.80;99.90
26049;DHT22;13822;51.568;5.086;2023-06-22T07:19:26;22.00;99.90
26049;DHT22;13822;51.568;5.086;2023-06-22T07:24:29;22.20;99.90
26049;DHT22;13822;51.568;5.086;2023-06-22T07:29:31;22.40;99.90
26049;DHT22;13822;51.568;5.086;2023-06-22T07:34:33;22.50;99.90
26049;DHT22;13822;51.568;5.086;2023-06-22T07:39:35;22.50;99.90
26049;DHT22;13822;51.568;5.086;2023-06-22T07:44:39;22.60;99.90
26049;DHT22;13822;51.568;5.086;2023-06-22T07:49:41;22.70;99.90
26049;DHT22;13822;51.568;5.086;2023-06-22T07:54:43;22.50;99.90
26049;DHT22;13822;51.568;5.086;2023-06-22T07:59:45;22.40;99.90
26049;DHT22;13822;51.568;5.086;2023-06-22T08:04:47;22.50;99.90
26049;DHT22;13822;51.568;5.086;2023-06-22T08:09:49;22.50;99.90
26049;DHT22;13822;51.568;5.086;2023-06-22T08:14:51;22.50;99.90
26049;DHT22;13822;51.568;5.086;2023-06-22T08:19:53;22.60;99.90
26049;DHT22;13822;51.568;5.086;2023-06-22T08:24:55;22.70;99.90
26049;DHT22;13822;51.568;5.086;2023-06-22T08:29:57;22.70;99.90
26049;DHT22;13822;51.568;5.086;2023-06-22T08:35:00;22.70;99.90
26049;DHT22;13822;51.568;5.086;2023-06-22T08:40:03;22.70;99.90
26049;DHT22;13822;51.568;5.086;2023-06-22T08:45:10;22.70;99.90
26049;DHT22;13822;51.568;5.086;2023-06-22T08:50:12;22.80;99.90
26049;DHT22;13822;51.568;5.086;2023-06-22T08:55:14;22.70;99.90
26049;DHT22;13822;51.568;5.086;2023-06-22T09:00:16;22.70;99.90
26049;DHT22;13822;51.568;5.086;2023-06-22T09:05:21;22.70;99.90
26049;DHT22;13822;51.568;5.086;2023-06-22T09:10:23;22.70;99.90
26049;DHT22;13822;51.568;5.086;2023-06-22T09:15:26;22.70;99.90
26049;DHT22;13822;51.568;5.086;2023-06-22T09:20:28;22.70;99.90
26049;DHT22;13822;51.568;5.086;2023-06-22T09:25:30;22.70;99.90
26049;DHT22;13822;51.568;5.086;2023-06-22T09:30:33;22.70;99.90
26049;DHT22;13822;51.568;5.086;2023-06-22T09:35:34;22.70;99.90
26049;DHT22;13822;51.568;5.086;2023-06-22T09:40:36;22.60;99.90
26049;DHT22;13822;51.568;5.086;2023-06-22T09:45:41;22.60;99.90
26049;DHT22;13822;51.568;5.086;2023-06-22T09:50:43;22.60;99.90
26049;DHT22;13822;51.568;5.086;2023-06-22T09:55:45;22.60;99.90
26049;DHT22;13822;51.568;5.086;2023-06-22T10:00:48;22.60;99.90
26049;DHT22;13822;51.568;5.086;2023-06-22T10:05:50;22.60;99.90
26049;DHT22;13822;51.568;5.086;2023-06-22T10:10:51;22.60;99.90
26049;DHT22;13822;51.568;5.086;2023-06-22T10:15:54;22.60;99.90
26049;DHT22;13822;51.568;5.086;2023-06-22T10:20:56;22.70;99.90
26049;DHT22;13822;51.568;5.086;2023-06-22T10:25:58;22.70;99.90
26049;DHT22;13822;51.568;5.086;2023-06-22T10:31:00;22.70;99.90
26049;DHT22;13822;51.568;5.086;2023-06-22T10:36:03;22.80;99.90
26049;DHT22;13822;51.568;5.086;2023-06-22T10:41:05;22.80;99.90
26049;DHT22;13822;51.568;5.086;2023-06-22T10:46:07;22.80;99.90
26049;DHT22;13822;51.568;5.086;2023-06-22T10:51:09;22.80;99.90
26049;DHT22;13822;51.568;5.086;2023-06-22T10:56:11;22.90;99.90
26049;DHT22;13822;51.568;5.086;2023-06-22T11:01:14;23.00;99.90
26049;DHT22;13822;51.568;5.086;2023-06-22T11:06:35;23.10;99.90
26049;DHT22;13822;51.568;5.086;2023-06-22T11:11:37;23.10;99.90
26049;DHT22;13822;51.568;5.086;2023-06-22T11:16:39;23.10;99.90
26049;DHT22;13822;51.568;5.086;2023-06-22T11:21:41;23.10;99.90
26049;DHT22;13822;51.568;5.086;2023-06-22T11:26:43;23.10;99.90
26049;DHT22;13822;51.568;5.086;2023-06-22T11:31:45;23.00;99.90
26049;DHT22;13822;51.568;5.086;2023-06-22T11:36:47;22.90;99.90
26049;DHT22;13822;51.568;5.086;2023-06-22T11:41:49;22.80;99.90
26049;DHT22;13822;51.568;5.086;2023-06-22T11:46:51;22.70;99.90
26049;DHT22;13822;51.568;5.086;2023-06-22T11:51:54;22.50;99.90
26049;DHT22;13822;51.568;5.086;2023-06-22T11:56:56;22.40;99.90
26049;DHT22;13822;51.568;5.086;2023-06-22T12:01:58;22.20;99.90
26049;DHT22;13822;51.568;5.086;2023-06-22T12:07:00;22.00;99.90
26049;DHT22;13822;51.568;5.086;2023-06-22T12:12:02;21.80;99.90
26049;DHT22;13822;51.568;5.086;2023-06-22T12:17:04;21.60;99.90
26049;DHT22;13822;51.568;5.086;2023-06-22T12:22:09;21.40;99.90
26049;DHT22;13822;51.568;5.086;2023-06-22T12:27:11;21.10;99.90
26049;DHT22;13822;51.568;5.086;2023-06-22T12:32:13;20.80;99.90
26049;DHT22;13822;51.568;5.086;2023-06-22T12:37:16;20.70;99.90
26049;DHT22;13822;51.568;5.086;2023-06-22T12:42:18;20.50;99.90
26049;DHT22;13822;51.568;5.086;2023-06-22T12:47:21;20.30;99.90
26049;DHT22;13822;51.568;5.086;2023-06-22T12:52:30;20.20;99.90
26049;DHT22;13822;51.568;5.086;2023-06-22T12:57:33;20.10;99.90
26049;DHT22;13822;51.568;5.086;2023-06-22T13:02:35;20.00;99.90
26049;DHT22;13822;51.568;5.086;2023-06-22T13:07:38;19.90;99.90
26049;DHT22;13822;51.568;5.086;2023-06-22T13:12:40;19.80;99.90
26049;DHT22;13822;51.568;5.086;2023-06-22T13:17:42;19.70;99.90
26049;DHT22;13822;51.568;5.086;2023-06-22T13:22:44;19.60;99.90
26049;DHT22;13822;51.568;5.086;2023-06-22T13:27:49;19.50;99.90
26049;DHT22;13822;51.568;5.086;2023-06-22T13:32:51;19.50;99.90
26049;DHT22;13822;51.568;5.086;2023-06-22T13:37:53;19.30;99.90
26049;DHT22;13822;51.568;5.086;2023-06-22T13:42:55;19.30;99.90
26049;DHT22;13822;51.568;5.086;2023-06-22T13:47:57;19.30;99.90
26049;DHT22;13822;51.568;5.086;2023-06-22T13:53:00;19.30;99.90
26049;DHT22;13822;51.568;5.086;2023-06-22T13:58:02;19.20;99.90
26049;DHT22;13822;51.568;5.086;2023-06-22T14:03:04;19.20;99.90
26049;DHT22;13822;51.568;5.086;2023-06-22T14:08:06;19.30;99.90
26049;DHT22;13822;51.568;5.086;2023-06-22T14:13:28;19.20;99.90
26049;DHT22;13822;51.568;5.086;2023-06-22T14:18:30;19.10;99.90
26049;DHT22;13822;51.568;5.086;2023-06-22T14:23:32;19.10;99.90
26049;DHT22;13822;51.568;5.086;2023-06-22T14:28:34;19.10;99.90
26049;DHT22;13822;51.568;5.086;2023-06-22T14:33:36;19.10;99.90
26049;DHT22;13822;51.568;5.086;2023-06-22T14:38:38;19.10;99.90
26049;DHT22;13822;51.568;5.086;2023-06-22T14:43:43;19.20;99.90
26049;DHT22;13822;51.568;5.086;2023-06-22T14:48:45;19.20;99.90
26049;DHT22;13822;51.568;5.086;2023-06-22T14:53:47;19.20;99.90
26049;DHT22;13822;51.568;5.086;2023-06-22T14:58:49;19.20;99.90
26049;DHT22;13822;51.568;5.086;2023-06-22T15:03:51;19.10;99.90
26049;DHT22;13822;51.568;5.086;2023-06-22T15:08:53;19.10;99.90
26049;DHT22;13822;51.568;5.086;2023-06-22T15:13:57;19.00;99.90
26049;DHT22;13822;51.568;5.086;2023-06-22T15:19:00;19.00;99.90
26049;DHT22;13822;51.568;5.086;2023-06-22T15:24:01;18.90;99.90
26049;DHT22;13822;51.568;5.086;2023-06-22T15:29:04;19.00;99.90
26049;DHT22;13822;51.568;5.086;2023-06-22T15:34:06;19.10;99.90
26049;DHT22;13822;51.568;5.086;2023-06-22T15:39:08;19.10;99.90
26049;DHT22;13822;51.568;5.086;2023-06-22T15:44:10;19.10;99.90
26049;DHT22;13822;51.568;5.086;2023-06-22T15:49:12;19.10;99.90
26049;DHT22;13822;51.568;5.086;2023-06-22T15:54:15;19.10;99.90
26049;DHT22;13822;51.568;5.086;2023-06-22T15:59:17;19.20;99.90
26049;DHT22;13822;51.568;5.086;2023-06-22T16:04:18;19.20;99.90
26049;DHT22;13822;51.568;5.086;2023-06-22T16:09:20;19.20;99.90
26049;DHT22;13822;51.568;5.086;2023-06-22T16:14:22;19.20;99.90
26049;DHT22;13822;51.568;5.086;2023-06-22T16:19:24;19.20;99.90
26049;DHT22;13822;51.568;5.086;2023-06-22T16:24:26;19.20;99.90
26049;DHT22;13822;51.568;5.086;2023-06-22T16:29:29;19.20;99.90
26049;DHT22;13822;51.568;5.086;2023-06-22T16:34:31;19.20;99.90
26049;DHT22;13822;51.568;5.086;2023-06-22T16:39:33;19.20;99.90
26049;DHT22;13822;51.568;5.086;2023-06-22T16:44:35;19.20;99.90
26049;DHT22;13822;51.568;5.086;2023-06-22T16:49:37;19.20;99.90
26049;DHT22;13822;51.568;5.086;2023-06-22T16:54:39;19.20;99.90
26049;DHT22;13822;51.568;5.086;2023-06-22T17:00:00;19.20;99.90
26049;DHT22;13822;51.568;5.086;2023-06-22T17:05:02;19.20;99.90
26049;DHT22;13822;51.568;5.086;2023-06-22T17:10:04;19.20;99.90
26049;DHT22;13822;51.568;5.086;2023-06-22T17:15:09;19.20;99.90
26049;DHT22;13822;51.568;5.086;2023-06-22T17:20:12;19.10;99.90
26049;DHT22;13822;51.568;5.086;2023-06-22T17:25:14;19.10;99.90
26049;DHT22;13822;51.568;5.086;2023-06-22T17:30:16;19.00;99.90
26049;DHT22;13822;51.568;5.086;2023-06-22T17:35:20;19.00;99.90
26049;DHT22;13822;51.568;5.086;2023-06-22T17:40:23;19.00;99.90
26049;DHT22;13822;51.568;5.086;2023-06-22T17:45:25;18.90;99.90
26049;DHT22;13822;51.568;5.086;2023-06-22T17:50:30;18.90;99.90
26049;DHT22;13822;51.568;5.086;2023-06-22T17:55:32;18.80;99.90
26049;DHT22;13822;51.568;5.086;2023-06-22T18:00:35;18.70;99.90
26049;DHT22;13822;51.568;5.086;2023-06-22T18:05:38;18.60;99.90
26049;DHT22;13822;51.568;5.086;2023-06-22T18:10:47;18.50;99.90
26049;DHT22;13822;51.568;5.086;2023-06-22T18:15:50;18.50;99.90
26049;DHT22;13822;51.568;5.086;2023-06-22T18:20:53;18.50;99.90
26049;DHT22;13822;51.568;5.086;2023-06-22T18:25:57;18.50;99.90
26049;DHT22;13822;51.568;5.086;2023-06-22T18:30:59;18.40;99.90
26049;DHT22;13822;51.568;5.086;2023-06-22T18:36:02;18.40;99.90
26049;DHT22;13822;51.568;5.086;2023-06-22T18:41:05;18.30;99.90
26049;DHT22;13822;51.568;5.086;2023-06-22T18:56:54;18.10;99.90
26049;DHT22;13822;51.568;5.086;2023-06-22T19:02:00;18.10;99.90
26049;DHT22;13822;51.568;5.086;2023-06-22T19:07:02;18.00;99.90
26049;DHT22;13822;51.568;5.086;2023-06-22T19:12:18;18.00;99.90
26049;DHT22;13822;51.568;5.086;2023-06-22T19:17:23;18.00;99.90
26049;DHT22;13822;51.568;5.086;2023-06-22T19:27:47;18.00;99.90
26049;DHT22;13822;51.568;5.086;2023-06-22T19:32:50;18.00;99.90
26049;DHT22;13822;51.568;5.086;2023-06-22T19:37:52;18.10;99.90
26049;DHT22;13822;51.568;5.086;2023-06-22T19:42:54;18.10;99.90
26049;DHT22;13822;51.568;5.086;2023-06-22T19:47:57;18.10;99.90
26049;DHT22;13822;51.568;5.086;2023-06-22T19:53:02;18.10;99.90
26049;DHT22;13822;51.568;5.086;2023-06-22T19:58:04;18.10;99.90
26049;DHT22;13822;51.568;5.086;2023-06-22T20:03:10;18.20;99.90
26049;DHT22;13822;51.568;5.086;2023-06-22T23:37:59;16.40;99.90
26049;DHT22;13822;51.568;5.086;2023-06-22T23:44:39;16.40;99.90
